Pierce, NE

1:33 AM CDT on May 01, 2017 (GMT -0500)
| | Change Station

Elev -9999 ft 0.00 °N, 0.00 °E | Updated 0 second ago

Overcast
Overcast
°F
Feels Like °F
N
Wind Variable Wind from North
Gusts mph

Today
High -- | Low -- °F
--% Chance of Precip.
Yesterday
High -- | Low -- °F
Precip. -- in
Pressure 29.59 in
Visibility 10.0 miles
Clouds Overcast 800 ft
Dew Point Not available.
Humidity Not available.
Rainfall --
Snow Depth Not available.
6:25 AM 8:29 PM
Waxing Crescent, 30% visible
METAR KOFK 010556Z AUTO 35014G21KT 10SM OVC008 01/M01 A2955 RMK AO2 UPE15B38E41SNB19E38 CIG 007V011 SLP019 P0000 60017 T00111006 10022 20006 400670006 56018
Pressure 29.59 in
Visibility 10.0 miles
Clouds Overcast 800 ft
Dew Point Not available.
Humidity Not available.
Rainfall --
Snow Depth Not available.
6:25 AM 8:29 PM
Waxing Crescent, 30% visible
METAR KOFK 010556Z AUTO 35014G21KT 10SM OVC008 01/M01 A2955 RMK AO2 UPE15B38E41SNB19E38 CIG 007V011 SLP019 P0000 60017 T00111006 10022 20006 400670006 56018

Get Severe Weather Alerts

Thanks for signing up!

Be on the lookout for a verification email in your inbox.

You'll start receiving the daily forecast at 8 AM.

×

10-Day Weather Forecast

Almanac

Astronomy

May. 01, 2017 Rise Set
Actual Time
Civil Twilight
Nautical Twilight
Astronomical Twilight
Moon
Length of Visible Light
Length of Day
Tomorrow will be .
, % of the Moon is Illuminated

Today's Extremes

State Highs State Lows

Community

WunderPhotos

WunderBlog® & News

Nearby

Air Quality

  Air Quality AQ Index Pollutant
Not available.

Snow Depth

Station Depth Elevation

Earthquake Activity

City Distance Mag. Time & Date
Minimum magnitude displayed is 2.5.

Coastal Water Temperatures

Place Temperature

Stations

Nearby Weather Stations

Station Location Temp. Windchill Dew Point Humidity Wind Precip. Elev Updated Type
                   

Watches & Warnings

There are currently no watches in effect.